Terminal Aerodrome Forecast
Issued by NWS

Home | Current Version | Previous Version | Text Only | Print | Product List | Glossary On
Versions: 1 2 3 4 5 6 7 8 9 10 11 12 13 14 15 16 17 18 19 20 21 22 23 24
000
FTUS45 KSLC 091120
TAFBCE
TAF
KBCE 091120Z 0912/1012 25007KT P6SM SCT060 BKN150=

USA.gov is the U.S. government's official web portal to all federal, state and local government web resources and services.